Time;durP1;ratioP1;P1;durP2;ratioP2;P2;SDS_P1;SDS_P2;PMS_P1;PMS_P2;Temp;Humidity;BMP_temperature;BMP_pressure;BME280_temperature;BME280_humidity;BME280_pressure;Samples;Min_cycle;Max_cycle;Signal;HPM_P1;HPM_P2
2022/03/19 00:01:01;;;;;;;;;;;;;;;-5.97;82.21;102091.95;1714365;83;21237;-68
2022/03/19 00:03:28;;;;;;;;;;;;;;;-6.04;82.29;102087.67;1714423;83;20197;-66
2022/03/19 00:05:56;;;;;;;;;;;;;;;-6.06;82.37;102089.66;1714456;83;20077;-68
2022/03/19 00:08:23;;;;;;;;;;;;;;;-6.08;82.52;102089.80;1714370;83;20085;-67
2022/03/19 00:10:52;;;;;;;;;;;;;;;-6.09;82.69;102080.09;1714436;83;20085;-68
2022/03/19 00:13:20;;;;;;;;;;;;;;;-6.11;82.94;102090.58;1714445;83;20118;-68
2022/03/19 00:15:47;;;;;;;;;;;;;;;-6.13;83.13;102093.40;1714337;83;20539;-68
2022/03/19 00:18:16;;;;;;;;;;;;;;;-6.15;83.16;102092.70;1714446;83;20472;-69
2022/03/19 00:20:43;;;;;;;;;;;;;;;-6.16;83.26;102092.84;1714401;83;20150;-68
2022/03/19 00:23:10;;;;;;;;;;;;;;;-6.16;83.36;102098.19;1714404;83;20121;-68
2022/03/19 00:25:38;;;;;;;;;;;;;;;-6.18;83.48;102097.00;1718742;82;21312;-69
2022/03/19 00:28:04;;;;;;;;;;;;;;;-6.20;83.56;102090.95;1732919;82;20128;-68
2022/03/19 00:30:32;;;;;;;;;;;;;;;-6.22;83.66;102088.92;1736901;82;20126;-67
2022/03/19 00:33:00;;;;;;;;;;;;;;;-6.25;83.64;102091.03;1714572;83;20097;-68
2022/03/19 00:35:27;;;;;;;;;;;;;;;-6.29;83.69;102082.95;1714749;83;20096;-67
2022/03/19 00:37:53;;;;;;;;;;;;;;;-6.34;83.73;102081.55;1714511;83;21227;-69
2022/03/19 00:40:22;;;;;;;;;;;;;;;-6.36;83.87;102082.72;1714396;83;20426;-68
2022/03/19 00:42:50;;;;;;;;;;;;;;;-6.39;83.91;102081.67;1713021;83;20134;-67
2022/03/19 00:45:17;;;;;;;;;;;;;;;-6.42;83.99;102082.80;1713269;84;20598;-67
2022/03/19 00:47:45;;;;;;;;;;;;;;;-6.42;84.19;102080.62;1713105;83;20074;-67
2022/03/19 00:50:13;;;;;;;;;;;;;;;-6.42;84.21;102073.44;1713004;84;21149;-67
2022/03/19 00:52:40;;;;;;;;;;;;;;;-6.44;84.32;102069.23;1713042;83;20082;-67
2022/03/19 00:55:09;;;;;;;;;;;;;;;-6.46;84.45;102068.03;1713417;83;20070;-67
2022/03/19 00:57:43;;;;;;;;;;;;;;;-6.48;84.51;102067.34;1713101;84;20070;-67
2022/03/19 01:00:11;;;;;;;;;;;;;;;-6.49;84.57;102069.66;1712935;84;20118;-67
2022/03/19 01:02:43;;;;;;;;;;;;;;;-6.51;84.46;102072.12;1713072;83;20426;-68
2022/03/19 01:05:12;;;;;;;;;;;;;;;-6.54;84.38;102071.91;1712958;84;20094;-68
2022/03/19 01:07:42;;;;;;;;;;;;;;;-6.55;84.27;102072.90;1713070;83;20437;-68
2022/03/19 01:10:12;;;;;;;;;;;;;;;-6.57;84.29;102070.02;1713090;84;20082;-68
2022/03/19 01:12:42;;;;;;;;;;;;;;;-6.61;84.04;102069.95;1712939;83;20086;-69
2022/03/19 01:15:12;;;;;;;;;;;;;;;-6.69;84.01;102074.17;1692924;84;20098;-68
2022/03/19 01:17:41;;;;;;;;;;;;;;;-6.73;84.15;102070.10;1713005;83;20118;-68
2022/03/19 01:20:10;;;;;;;;;;;;;;;-6.76;84.19;102071.72;1712994;84;20109;-69
2022/03/19 01:22:39;;;;;;;;;;;;;;;-6.78;84.29;102067.50;1712994;83;20118;-69
2022/03/19 01:25:07;;;;;;;;;;;;;;;-6.80;84.29;102065.47;1713061;83;20118;-69
2022/03/19 01:27:35;;;;;;;;;;;;;;;-6.85;84.11;102064.55;1713231;83;21713;-69
2022/03/19 01:30:04;;;;;;;;;;;;;;;-6.88;84.14;102068.84;1712903;83;20114;-69
2022/03/19 01:32:31;;;;;;;;;;;;;;;-6.91;84.02;102066.94;1713224;84;20118;-68
2022/03/19 01:34:58;;;;;;;;;;;;;;;-6.94;83.98;102064.59;1713156;83;20516;-68
2022/03/19 01:37:25;;;;;;;;;;;;;;;-6.98;83.98;102064.02;1713049;83;20086;-69
2022/03/19 01:39:54;;;;;;;;;;;;;;;-7.01;84.12;102065.14;1712927;83;22111;-69
2022/03/19 01:42:27;;;;;;;;;;;;;;;-7.04;84.10;102068.59;1738112;82;20426;-69
2022/03/19 01:44:55;;;;;;;;;;;;;;;-7.12;84.19;102061.77;1748087;82;20123;-69
2022/03/19 01:47:23;;;;;;;;;;;;;;;-7.17;84.46;102067.52;1748028;82;20095;-69
2022/03/19 01:49:50;;;;;;;;;;;;;;;-7.21;84.50;102060.77;1748141;82;20119;-67
2022/03/19 01:52:18;;;;;;;;;;;;;;;-7.27;84.48;102056.48;1748029;82;20123;-67
2022/03/19 01:54:48;;;;;;;;;;;;;;;-7.30;84.63;102062.09;1747996;82;20083;-68
2022/03/19 01:57:18;;;;;;;;;;;;;;;-7.32;84.79;102060.41;1748112;82;20435;-67
2022/03/19 01:59:47;;;;;;;;;;;;;;;-7.33;84.85;102067.22;1748134;82;20112;-67
2022/03/19 02:02:14;;;;;;;;;;;;;;;-7.34;85.05;102058.85;1729062;82;20107;-67
2022/03/19 02:04:44;;;;;;;;;;;;;;;-7.33;85.44;102060.55;1748011;82;21133;-68
2022/03/19 02:07:13;;;;;;;;;;;;;;;-7.31;85.63;102070.59;1748283;82;20447;-68
2022/03/19 02:09:41;;;;;;;;;;;;;;;-7.29;85.69;102069.95;1748083;82;20422;-68
2022/03/19 02:12:09;;;;;;;;;;;;;;;-7.27;85.75;102075.16;1748106;82;20095;-68
2022/03/19 02:14:37;;;;;;;;;;;;;;;-7.28;85.58;102069.47;1748166;82;20118;-68
2022/03/19 02:17:06;;;;;;;;;;;;;;;-7.30;85.57;102074.09;1748028;82;21371;-68
2022/03/19 02:19:33;;;;;;;;;;;;;;;-7.32;85.75;102073.75;1747901;82;20099;-68
2022/03/19 02:22:00;;;;;;;;;;;;;;;-7.33;85.84;102069.39;1747940;82;20119;-68
2022/03/19 02:27:15;;;;;;;;;;;;;;;-7.34;85.83;102064.19;1748073;82;20091;-73
2022/03/19 02:29:43;;;;;;;;;;;;;;;-7.36;85.83;102076.34;1747976;82;21959;-74
2022/03/19 02:32:10;;;;;;;;;;;;;;;-7.39;85.67;102075.77;1747947;82;20095;-72
2022/03/19 02:34:38;;;;;;;;;;;;;;;-7.45;85.70;102069.64;1748097;82;20122;-74
2022/03/19 02:37:05;;;;;;;;;;;;;;;-7.47;85.84;102064.94;1747983;82;20091;-73
2022/03/19 02:39:33;;;;;;;;;;;;;;;-7.50;85.86;102067.39;1748119;81;20131;-73
2022/03/19 02:42:04;;;;;;;;;;;;;;;-7.52;85.95;102069.38;1746474;82;21129;-73
2022/03/19 02:44:31;;;;;;;;;;;;;;;-7.54;85.96;102067.83;1744865;82;20170;-75
2022/03/19 02:47:03;;;;;;;;;;;;;;;-7.57;86.00;102070.77;1744921;82;20091;-75
2022/03/19 02:49:29;;;;;;;;;;;;;;;-7.60;86.09;102068.38;1744908;82;20131;-74
2022/03/19 02:51:56;;;;;;;;;;;;;;;-7.61;86.17;102077.36;1744927;82;20083;-75
2022/03/19 02:54:26;;;;;;;;;;;;;;;-7.63;86.22;102075.31;1744816;82;21777;-74
2022/03/19 02:56:53;;;;;;;;;;;;;;;-7.63;86.24;102073.48;1744743;82;20124;-75
2022/03/19 02:59:22;;;;;;;;;;;;;;;-7.67;86.21;102073.41;1744820;82;20095;-74
2022/03/19 03:01:54;;;;;;;;;;;;;;;-7.67;86.31;102073.41;1724065;82;20084;-74
2022/03/19 03:04:21;;;;;;;;;;;;;;;-7.71;86.18;102077.32;1744859;82;20096;-68
2022/03/19 03:06:49;;;;;;;;;;;;;;;-7.77;86.31;102073.38;1744884;82;21126;-67
2022/03/19 03:09:21;;;;;;;;;;;;;;;-7.81;86.50;102077.78;1744730;82;20402;-66
2022/03/19 03:11:48;;;;;;;;;;;;;;;-7.85;86.49;102077.20;1745014;82;20095;-71
2022/03/19 03:14:22;;;;;;;;;;;;;;;-7.85;86.66;102081.69;1744794;82;20147;-68
2022/03/19 03:16:46;;;;;;;;;;;;;;;-7.87;86.59;102083.16;1744003;82;20115;-68
2022/03/19 03:19:13;;;;;;;;;;;;;;;-7.88;86.50;102081.47;1744763;82;21125;-67
2022/03/19 03:21:41;;;;;;;;;;;;;;;-7.90;86.45;102085.25;1744762;82;20406;-68
2022/03/19 03:24:09;;;;;;;;;;;;;;;-7.93;86.51;102087.69;1744988;82;20430;-67
2022/03/19 03:26:35;;;;;;;;;;;;;;;-7.94;86.64;102082.00;1744785;82;20123;-67
2022/03/19 03:29:03;;;;;;;;;;;;;;;-7.92;86.85;102088.53;1744906;82;20111;-67
2022/03/19 03:31:30;;;;;;;;;;;;;;;-7.91;86.89;102084.89;1742783;82;22008;-66
2022/03/19 03:34:01;;;;;;;;;;;;;;;-7.90;86.88;102087.42;1734681;82;20437;-68
2022/03/19 03:36:28;;;;;;;;;;;;;;;-7.91;86.84;102092.89;1715223;83;20497;-69
2022/03/19 03:38:56;;;;;;;;;;;;;;;-7.94;86.95;102087.83;1695133;83;21103;-69
2022/03/19 03:41:23;;;;;;;;;;;;;;;-7.91;87.21;102093.73;1714819;83;20086;-69
2022/03/19 03:43:52;;;;;;;;;;;;;;;-7.88;87.63;102096.13;1712986;83;20094;-68
2022/03/19 03:46:19;;;;;;;;;;;;;;;-7.82;87.92;102099.59;1712887;83;20110;-67
2022/03/19 03:48:46;;;;;;;;;;;;;;;-7.75;88.22;102098.08;1712916;84;20425;-68
2022/03/19 03:51:14;;;;;;;;;;;;;;;-7.59;90.54;102102.08;1712934;83;20098;-69
2022/03/19 03:53:45;;;;;;;;;;;;;;;-7.55;90.72;102096.33;1712991;84;20094;-72
2022/03/19 03:56:12;;;;;;;;;;;;;;;-7.61;90.72;102100.03;1712893;83;20573;-71
2022/03/19 03:58:40;;;;;;;;;;;;;;;-7.70;90.31;102096.34;1712799;84;20121;-70
2022/03/19 04:01:08;;;;;;;;;;;;;;;-7.79;89.83;102100.66;1712815;84;20166;-70
2022/03/19 04:03:37;;;;;;;;;;;;;;;-7.86;89.48;102100.00;1712856;83;20156;-68
2022/03/19 04:06:04;;;;;;;;;;;;;;;-7.93;89.20;102101.02;1713077;84;20429;-68
2022/03/19 04:08:32;;;;;;;;;;;;;;;-7.94;89.30;102099.82;1712926;84;21140;-70
2022/03/19 04:10:59;;;;;;;;;;;;;;;-7.97;89.22;102101.42;1712856;84;20180;-70
2022/03/19 04:13:28;;;;;;;;;;;;;;;-8.00;89.23;102095.38;1712945;83;20460;-71
2022/03/19 04:15:56;;;;;;;;;;;;;;;-8.01;89.23;102103.02;1713088;83;20127;-69
2022/03/19 04:18:23;;;;;;;;;;;;;;;-8.00;89.28;102102.05;1712933;83;20094;-70
2022/03/19 04:20:51;;;;;;;;;;;;;;;-8.00;89.26;102100.70;1712812;84;22055;-69
2022/03/19 04:23:20;;;;;;;;;;;;;;;-7.96;89.45;102104.44;1711688;84;20138;-69
2022/03/19 04:25:50;;;;;;;;;;;;;;;-7.90;89.89;102109.24;1712059;83;20070;-68
2022/03/19 04:28:17;;;;;;;;;;;;;;;-7.83;90.07;102111.73;1713214;84;20082;-69
2022/03/19 04:30:45;;;;;;;;;;;;;;;-7.79;89.99;102114.48;1712954;84;20425;-69
2022/03/19 04:33:13;;;;;;;;;;;;;;;-7.78;89.71;102109.51;1712933;83;20155;-69
2022/03/19 04:38:28;;;;;;;;;;;;;;;-7.79;89.36;102118.48;1713183;84;20453;-72
2022/03/19 04:40:56;;;;;;;;;;;;;;;-7.78;89.49;102122.84;1712875;84;20118;-70
2022/03/19 04:43:24;;;;;;;;;;;;;;;-7.75;89.67;102115.91;1712747;83;20118;-70
2022/03/19 04:45:52;;;;;;;;;;;;;;;-7.69;89.78;102122.05;1712931;84;21194;-70
2022/03/19 04:48:19;;;;;;;;;;;;;;;-7.64;90.03;102117.15;1712858;83;20126;-71
2022/03/19 04:50:48;;;;;;;;;;;;;;;-7.54;90.53;102125.19;1712931;83;20480;-71
2022/03/19 04:53:15;;;;;;;;;;;;;;;-7.44;90.75;102121.55;1713207;83;20106;-71
2022/03/19 04:55:42;;;;;;;;;;;;;;;-7.29;90.82;102113.16;1712779;84;20117;-71
2022/03/19 04:58:11;;;;;;;;;;;;;;;-7.17;90.65;102118.73;1712700;83;20149;-70
2022/03/19 05:00:41;;;;;;;;;;;;;;;-7.12;90.33;102123.17;1712613;83;20153;-71
2022/03/19 05:03:11;;;;;;;;;;;;;;;-7.05;90.28;102126.97;1712924;84;20447;-70
2022/03/19 05:05:39;;;;;;;;;;;;;;;-6.96;90.16;102131.48;1709247;84;20140;-71
2022/03/19 05:08:07;;;;;;;;;;;;;;;-6.89;90.10;102132.59;1711831;83;20147;-73
2022/03/19 05:13:20;;;;;;;;;;;;;;;-6.69;90.04;102130.77;1711797;83;20139;-71
2022/03/19 05:15:47;;;;;;;;;;;;;;;-6.54;90.15;102133.87;1712124;83;20164;-71
2022/03/19 05:18:15;;;;;;;;;;;;;;;-6.41;90.15;102139.28;1712276;83;20188;-70
2022/03/19 05:20:44;;;;;;;;;;;;;;;-6.26;90.17;102134.30;1712263;83;20129;-71
2022/03/19 05:23:11;;;;;;;;;;;;;;;-6.12;90.08;102136.53;1712605;83;21160;-70
2022/03/19 05:25:41;;;;;;;;;;;;;;;-5.96;89.80;102141.28;1712186;83;20129;-71
2022/03/19 05:28:09;;;;;;;;;;;;;;;-5.82;89.37;102147.97;1712397;83;20124;-71
2022/03/19 05:30:38;;;;;;;;;;;;;;;-5.67;88.85;102150.50;1712393;83;20219;-71
2022/03/19 05:33:07;;;;;;;;;;;;;;;-5.53;88.50;102150.52;1711657;83;20204;-71
2022/03/19 05:35:35;;;;;;;;;;;;;;;-5.39;88.05;102154.89;1711462;83;20160;-71
2022/03/19 05:38:05;;;;;;;;;;;;;;;-5.24;87.80;102151.73;1712234;83;20149;-71
2022/03/19 05:40:34;;;;;;;;;;;;;;;-5.11;87.58;102143.66;1711919;83;20148;-70
2022/03/19 05:43:01;;;;;;;;;;;;;;;-4.93;87.80;102142.84;1728060;82;20117;-69
2022/03/19 05:45:29;;;;;;;;;;;;;;;-4.76;87.66;102142.86;1746234;82;20100;-69
2022/03/19 05:47:55;;;;;;;;;;;;;;;-4.58;87.10;102144.67;1746261;82;21405;-69
2022/03/19 05:50:25;;;;;;;;;;;;;;;-4.39;86.30;102149.38;1746144;82;21262;-68
2022/03/19 05:52:54;;;;;;;;;;;;;;;-4.18;84.40;102151.73;1740311;82;20412;-68
2022/03/19 05:55:21;;;;;;;;;;;;;;;-3.96;82.43;102140.11;1742334;82;20121;-69
2022/03/19 05:57:50;;;;;;;;;;;;;;;-3.74;81.12;102151.16;1746397;82;20113;-68
2022/03/19 06:00:17;;;;;;;;;;;;;;;-3.52;79.69;102146.25;1744866;82;21315;-69
2022/03/19 06:02:44;;;;;;;;;;;;;;;-3.29;78.63;102145.15;1734624;82;20415;-69
2022/03/19 06:05:11;;;;;;;;;;;;;;;-3.08;75.63;102145.57;1734499;82;20119;-69
2022/03/19 06:07:39;;;;;;;;;;;;;;;-2.92;74.67;102146.97;1730066;82;20099;-69
2022/03/19 06:10:11;;;;;;;;;;;;;;;-2.76;72.17;102146.97;1745285;82;20123;-67
2022/03/19 06:12:40;;;;;;;;;;;;;;;-2.60;71.35;102148.00;1747162;82;20412;-69
2022/03/19 06:15:09;;;;;;;;;;;;;;;-2.44;70.80;102145.34;1745192;82;20079;-66
2022/03/19 06:17:38;;;;;;;;;;;;;;;-2.28;69.47;102151.20;1746886;82;20170;-68
2022/03/19 06:20:06;;;;;;;;;;;;;;;-2.15;69.01;102151.03;1746913;82;20087;-69
2022/03/19 06:22:37;;;;;;;;;;;;;;;-2.01;67.98;102151.69;1747244;82;20450;-68
2022/03/19 06:25:06;;;;;;;;;;;;;;;-1.87;67.45;102146.62;1746871;82;20087;-70
2022/03/19 06:27:33;;;;;;;;;;;;;;;-1.75;66.04;102150.65;1745233;82;20154;-67
2022/03/19 06:30:01;;;;;;;;;;;;;;;-1.60;66.19;102150.75;1746536;82;20098;-66
2022/03/19 06:32:28;;;;;;;;;;;;;;;-1.45;65.05;102153.91;1746824;82;20198;-69
2022/03/19 06:34:57;;;;;;;;;;;;;;;-1.31;64.22;102166.33;1745974;82;20095;-68
2022/03/19 06:37:23;;;;;;;;;;;;;;;-1.23;62.53;102166.30;1733621;82;21152;-68
2022/03/19 06:39:54;;;;;;;;;;;;;;;-1.14;62.23;102171.45;1717122;83;20456;-68
2022/03/19 06:42:21;;;;;;;;;;;;;;;-1.03;62.19;102172.41;1717100;83;20074;-67
2022/03/19 06:44:48;;;;;;;;;;;;;;;-0.88;62.10;102175.20;1714985;83;20113;-66
2022/03/19 06:47:15;;;;;;;;;;;;;;;-0.75;59.89;102170.59;1712898;84;20118;-66
2022/03/19 06:49:42;;;;;;;;;;;;;;;-0.66;59.35;102173.57;1737823;82;21146;-68
2022/03/19 06:52:10;;;;;;;;;;;;;;;-0.55;59.68;102173.64;1747880;82;20161;-70
2022/03/19 06:54:37;;;;;;;;;;;;;;;-0.38;59.55;102176.56;1748035;82;20097;-70
2022/03/19 06:57:04;;;;;;;;;;;;;;;-0.22;59.15;102176.44;1747917;82;20069;-68
2022/03/19 06:59:31;;;;;;;;;;;;;;;-0.04;58.59;102174.27;1747970;82;20085;-68
2022/03/19 07:02:03;;;;;;;;;;;;;;;0.11;57.57;102178.84;1747905;82;21129;-69
2022/03/19 07:04:38;;;;;;;;;;;;;;;0.20;54.99;102177.23;1747937;81;20089;-68
2022/03/19 07:07:03;;;;;;;;;;;;;;;0.27;54.84;102183.58;1743978;82;20384;-67
2022/03/19 07:09:33;;;;;;;;;;;;;;;0.37;54.99;102181.97;1747475;82;20137;-66
2022/03/19 07:12:05;;;;;;;;;;;;;;;0.55;55.27;102178.91;1748197;82;20467;-66
2022/03/19 07:14:36;;;;;;;;;;;;;;;0.71;54.03;102176.50;1747773;82;21146;-64
2022/03/19 07:17:07;;;;;;;;;;;;;;;0.84;53.20;102172.63;1727244;82;20081;-66
2022/03/19 07:19:39;;;;;;;;;;;;;;;1.09;52.36;102179.41;1728067;82;20093;-66
2022/03/19 07:22:13;;;;;;;;;;;;;;;1.52;51.49;102172.18;1727299;82;39679;-63
2022/03/19 07:24:43;;;;;;;;;;;;;;;2.07;49.28;102167.88;1747970;82;20125;-69
2022/03/19 07:27:16;;;;;;;;;;;;;;;2.60;48.39;102167.72;1747468;82;21248;-75
2022/03/19 07:29:52;;;;;;;;;;;;;;;3.20;46.62;102163.40;1747279;82;20113;-70
2022/03/19 07:32:21;;;;;;;;;;;;;;;3.70;45.96;102162.56;1727633;82;20405;-73
2022/03/19 07:34:56;;;;;;;;;;;;;;;4.20;44.32;102160.27;1743397;82;20138;-67
2022/03/19 07:37:28;;;;;;;;;;;;;;;4.70;43.53;102161.94;1710769;83;20111;-69
2022/03/19 07:40:01;;;;;;;;;;;;;;;5.03;42.68;102160.48;1715204;83;21112;-69
2022/03/19 07:42:32;;;;;;;;;;;;;;;5.22;41.19;102159.01;1714647;82;20434;-69
2022/03/19 07:45:02;;;;;;;;;;;;;;;5.63;39.69;102160.46;1714994;82;20080;-69
2022/03/19 07:47:36;;;;;;;;;;;;;;;5.98;38.73;102161.38;1717768;82;20092;-69
2022/03/19 07:50:05;;;;;;;;;;;;;;;6.20;37.47;102158.58;1717544;82;20451;-69
2022/03/19 07:52:43;;;;;;;;;;;;;;;6.27;35.52;102156.63;1717884;82;21222;-69
2022/03/19 07:55:09;;;;;;;;;;;;;;;6.14;36.45;102150.75;1717877;82;20115;-69
2022/03/19 07:57:44;;;;;;;;;;;;;;;6.19;36.44;102146.83;1717599;82;20095;-70
2022/03/19 08:00:12;;;;;;;;;;;;;;;6.43;35.63;102141.02;1717954;82;20099;-69
2022/03/19 08:02:44;;;;;;;;;;;;;;;6.67;35.33;102150.22;1718211;82;20083;-68
2022/03/19 08:05:19;;;;;;;;;;;;;;;6.90;32.74;102139.98;1712964;82;21721;-68
2022/03/19 08:07:53;;;;;;;;;;;;;;;6.95;32.69;102138.73;1717786;82;20084;-69
2022/03/19 08:10:19;;;;;;;;;;;;;;;7.20;32.17;102137.27;1717877;82;20119;-68
2022/03/19 08:12:50;;;;;;;;;;;;;;;7.50;31.78;102131.28;1717841;83;20147;-69
2022/03/19 08:15:24;;;;;;;;;;;;;;;7.73;30.30;102129.13;1718060;82;20119;-69
2022/03/19 08:17:53;;;;;;;;;;;;;;;7.84;29.85;102135.69;1718126;82;21082;-69
2022/03/19 08:20:28;;;;;;;;;;;;;;;7.96;28.83;102129.70;1717882;83;20084;-70
2022/03/19 08:22:58;;;;;;;;;;;;;;;7.99;30.30;102137.98;1708532;83;20088;-70
2022/03/19 08:25:34;;;;;;;;;;;;;;;7.82;29.71;102130.98;1717769;82;20521;-68
2022/03/19 08:28:02;;;;;;;;;;;;;;;7.71;29.67;102133.99;1708390;83;20136;-68
2022/03/19 08:30:40;;;;;;;;;;;;;;;7.56;29.73;102138.52;1718027;83;21238;-69
2022/03/19 08:33:12;;;;;;;;;;;;;;;7.57;29.86;102128.42;1717763;82;20104;-69
2022/03/19 08:35:42;;;;;;;;;;;;;;;7.69;30.12;102132.02;1702945;83;20121;-70
2022/03/19 08:40:59;;;;;;;;;;;;;;;7.47;29.34;102129.55;1717978;83;20125;-70
2022/03/19 08:43:28;;;;;;;;;;;;;;;7.35;29.48;102123.20;1697404;83;20496;-69
2022/03/19 08:46:00;;;;;;;;;;;;;;;7.35;29.32;102124.56;1694012;83;20133;-69
2022/03/19 08:48:32;;;;;;;;;;;;;;;7.38;29.49;102124.94;1717170;83;20129;-70
2022/03/19 08:53:50;;;;;;;;;;;;;;;7.76;28.72;102117.72;1717181;83;20137;-69
2022/03/19 08:56:21;;;;;;;;;;;;;;;7.92;29.21;102117.03;1713100;83;20676;-69
2022/03/19 08:58:47;;;;;;;;;;;;;;;8.14;29.04;102116.44;1716777;83;20121;-69
2022/03/19 09:01:19;;;;;;;;;;;;;;;8.46;28.57;102118.31;1693525;83;20098;-68
2022/03/19 09:03:49;;;;;;;;;;;;;;;8.87;27.63;102115.37;1713666;83;20106;-70
2022/03/19 09:06:22;;;;;;;;;;;;;;;9.24;26.49;102115.81;1693601;83;20436;-69
2022/03/19 09:08:54;;;;;;;;;;;;;;;9.31;26.64;102114.84;1708845;83;21156;-69
2022/03/19 09:13:57;;;;;;;;;;;;;;;9.17;25.92;102114.33;1695280;83;20120;-68
2022/03/19 09:16:32;;;;;;;;;;;;;;;9.09;25.79;102118.28;1716753;83;20073;-68
2022/03/19 09:19:01;;;;;;;;;;;;;;;9.11;26.53;102114.77;1715734;83;20129;-69
2022/03/19 09:21:30;;;;;;;;;;;;;;;9.44;26.14;102115.38;1716951;83;21282;-70
2022/03/19 09:24:15;;;;;;;;;;;;;;;9.65;25.47;102114.38;1715791;83;20163;-67
2022/03/19 09:26:28;;;;;;;;;;;;;;;9.74;23.97;102106.04;1708624;83;20121;-69
2022/03/19 09:28:58;;;;;;;;;;;;;;;9.48;24.27;102106.12;1716999;83;20440;-69
2022/03/19 09:31:30;;;;;;;;;;;;;;;9.37;23.58;102106.47;1715825;83;20464;-68
2022/03/19 09:34:02;;;;;;;;;;;;;;;9.40;24.91;102105.14;1693306;83;20276;-68
2022/03/19 09:36:37;;;;;;;;;;;;;;;9.71;25.35;102104.63;1742876;82;20198;-67
2022/03/19 09:39:06;;;;;;;;;;;;;;;9.92;23.86;102098.91;1721930;82;20146;-68
2022/03/19 09:41:34;;;;;;;;;;;;;;;9.95;23.61;102090.18;1746546;82;20115;-69
2022/03/19 09:44:11;;;;;;;;;;;;;;;9.98;24.42;102097.08;1746673;82;20131;-68
2022/03/19 09:46:43;;;;;;;;;;;;;;;9.98;24.06;102104.77;1696171;84;20154;-68
2022/03/19 09:49:15;;;;;;;;;;;;;;;10.14;23.21;102097.62;1729134;83;20113;-69
2022/03/19 09:51:53;;;;;;;;;;;;;;;10.17;22.69;102093.83;1743635;82;20430;-69
2022/03/19 09:54:24;;;;;;;;;;;;;;;10.01;23.65;102096.58;1742577;82;20111;-69
2022/03/19 09:56:53;;;;;;;;;;;;;;;9.86;24.03;102095.80;1702390;84;20087;-71
2022/03/19 09:59:29;;;;;;;;;;;;;;;10.08;24.30;102098.62;1702732;84;21565;-70
2022/03/19 10:01:59;;;;;;;;;;;;;;;10.20;23.48;102101.59;1701814;84;20146;-70
2022/03/19 10:04:31;;;;;;;;;;;;;;;10.15;24.15;102100.11;1702657;84;20103;-72
2022/03/19 10:09:48;;;;;;;;;;;;;;;9.96;23.28;102084.98;1703216;84;20398;-71
2022/03/19 10:12:21;;;;;;;;;;;;;;;9.74;23.83;102082.72;1674402;84;20104;-71
2022/03/19 10:14:54;;;;;;;;;;;;;;;9.74;23.21;102078.07;1702730;84;20169;-72
2022/03/19 10:17:32;;;;;;;;;;;;;;;9.75;23.28;102074.25;1702790;84;20147;-71
2022/03/19 10:20:13;;;;;;;;;;;;;;;10.02;23.83;102081.78;1702976;84;20460;-69
2022/03/19 10:22:47;;;;;;;;;;;;;;;10.30;22.01;102074.01;1694032;84;20449;-70
2022/03/19 10:25:18;;;;;;;;;;;;;;;10.52;23.52;102078.42;1702282;84;21111;-70
2022/03/19 10:27:46;;;;;;;;;;;;;;;10.58;22.51;102074.66;1702803;84;20103;-69
2022/03/19 10:30:21;;;;;;;;;;;;;;;10.51;21.13;102062.20;1702201;84;20075;-68
2022/03/19 10:32:57;;;;;;;;;;;;;;;10.11;22.33;102062.44;1671146;84;20211;-69
2022/03/19 10:35:34;;;;;;;;;;;;;;;9.86;23.93;102066.45;1691461;83;20105;-70
2022/03/19 10:38:23;;;;;;;;;;;;;;;9.98;23.44;102064.16;1663424;85;20102;-70
2022/03/19 10:40:55;;;;;;;;;;;;;;;10.25;23.55;102061.04;1662521;85;20089;-70
2022/03/19 10:43:24;;;;;;;;;;;;;;;10.49;23.50;102061.08;1674771;85;20089;-72
2022/03/19 10:45:52;;;;;;;;;;;;;;;10.62;21.72;102049.42;1689949;85;20088;-72
2022/03/19 10:48:29;;;;;;;;;;;;;;;10.66;22.12;102050.58;1689055;85;20107;-71
2022/03/19 10:50:54;;;;;;;;;;;;;;;10.76;21.78;102047.96;1689922;85;21852;-71
2022/03/19 10:53:25;;;;;;;;;;;;;;;10.95;20.94;102043.80;1667822;85;20143;-69
2022/03/19 10:55:54;;;;;;;;;;;;;;;11.01;21.95;102044.11;1689551;85;20091;-70
2022/03/19 10:58:24;;;;;;;;;;;;;;;11.08;22.01;102040.61;1689946;85;20087;-70
2022/03/19 11:00:58;;;;;;;;;;;;;;;11.30;21.17;102035.61;1689959;85;20435;-71
2022/03/19 11:03:34;;;;;;;;;;;;;;;11.40;21.30;102031.58;1689137;84;21163;-72
2022/03/19 11:06:04;;;;;;;;;;;;;;;11.50;21.60;102033.89;1705667;84;20301;-70
2022/03/19 11:08:37;;;;;;;;;;;;;;;11.59;20.82;102027.33;1681285;84;20435;-70
2022/03/19 11:11:22;;;;;;;;;;;;;;;11.59;21.34;102027.33;1705600;84;20098;-71
2022/03/19 11:13:50;;;;;;;;;;;;;;;11.63;21.28;102021.58;1681802;84;20197;-71
2022/03/19 11:16:35;;;;;;;;;;;;;;;11.74;21.07;102023.88;1706485;84;21162;-71
2022/03/19 11:18:52;;;;;;;;;;;;;;;11.68;20.72;102027.67;1703779;84;20146;-71
2022/03/19 11:21:19;;;;;;;;;;;;;;;11.74;21.17;102025.25;1706391;84;20179;-70
2022/03/19 11:23:50;;;;;;;;;;;;;;;11.82;20.88;102017.91;1706495;84;20122;-71
2022/03/19 11:26:27;;;;;;;;;;;;;;;11.83;21.33;102027.28;1705228;84;20091;-72
2022/03/19 11:28:57;;;;;;;;;;;;;;;11.85;20.38;102015.46;1706393;83;21355;-68
2022/03/19 11:31:29;;;;;;;;;;;;;;;11.97;20.67;102014.44;1670542;85;20173;-71
2022/03/19 11:34:04;;;;;;;;;;;;;;;12.12;20.26;102022.80;1675051;85;20128;-73
2022/03/19 11:36:36;;;;;;;;;;;;;;;12.20;19.20;102016.21;1702588;83;20193;-72
2022/03/19 11:39:02;;;;;;;;;;;;;;;12.07;19.34;102015.88;1660857;83;20182;-72
2022/03/19 11:41:35;;;;;;;;;;;;;;;11.96;19.23;102006.73;1705887;83;21108;-72
2022/03/19 11:44:40;;;;;;;;;;;;;;;11.96;20.45;102010.03;1707761;83;20211;-74
2022/03/19 11:47:06;;;;;;;;;;;;;;;12.11;20.11;102008.75;1678033;85;20158;-74
2022/03/19 11:49:52;;;;;;;;;;;;;;;12.25;20.52;102012.66;1688209;85;20121;-73
2022/03/19 11:52:25;;;;;;;;;;;;;;;12.38;19.97;102006.67;1684134;85;20457;-73
2022/03/19 11:55:10;;;;;;;;;;;;;;;12.68;19.78;102004.59;1686248;85;21224;-71
2022/03/19 11:58:05;;;;;;;;;;;;;;;12.39;20.54;102001.44;1687589;85;20892;-71
2022/03/19 12:00:44;;;;;;;;;;;;;;;12.19;18.21;101997.20;1669345;85;20130;-72
2022/03/19 12:03:25;;;;;;;;;;;;;;;11.94;19.18;101993.78;1689537;84;20097;-71
2022/03/19 12:05:55;;;;;;;;;;;;;;;11.72;18.37;101996.62;1691702;85;20179;-71
2022/03/19 12:08:32;;;;;;;;;;;;;;;11.65;18.69;101972.63;1688000;85;21222;-74
2022/03/19 12:11:14;;;;;;;;;;;;;;;11.89;18.65;101990.45;1691875;83;20114;-70
2022/03/19 12:13:45;;;;;;;;;;;;;;;12.02;19.73;101990.53;1688463;85;20151;-71
2022/03/19 12:16:17;;;;;;;;;;;;;;;12.32;19.72;101989.02;1692436;83;20480;-71
2022/03/19 12:18:47;;;;;;;;;;;;;;;12.36;19.66;101996.47;1679969;85;20183;-71
2022/03/19 12:21:21;;;;;;;;;;;;;;;12.45;19.81;101991.28;1686316;84;20481;-71
2022/03/19 12:24:17;;;;;;;;;;;;;;;12.82;18.38;101973.19;1688283;84;20406;-72
2022/03/19 12:26:47;;;;;;;;;;;;;;;12.84;18.56;101976.50;1692335;84;20145;-73
2022/03/19 12:29:18;;;;;;;;;;;;;;;12.87;17.72;101983.68;1692393;84;20521;-72
2022/03/19 12:31:51;;;;;;;;;;;;;;;13.00;17.95;101972.69;1692398;85;20143;-72
2022/03/19 12:34:28;;;;;;;;;;;;;;;13.10;16.33;101971.32;1688755;85;21193;-73
2022/03/19 12:37:02;;;;;;;;;;;;;;;12.80;17.65;101971.26;1683587;84;20112;-72
2022/03/19 12:39:31;;;;;;;;;;;;;;;12.77;18.88;101969.05;1690506;85;20135;-73
2022/03/19 12:42:01;;;;;;;;;;;;;;;12.73;18.48;101965.17;1692101;83;20192;-73
2022/03/19 12:44:40;;;;;;;;;;;;;;;12.77;18.06;101967.66;1670490;85;20115;-72
2022/03/19 12:47:00;;;;;;;;;;;;;;;12.75;17.07;101965.18;1681940;85;21262;-75
2022/03/19 12:49:34;;;;;;;;;;;;;;;12.51;17.07;101968.16;1693079;85;20128;-73
2022/03/19 12:52:15;;;;;;;;;;;;;;;12.37;18.56;101958.19;1692952;85;20088;-73
2022/03/19 12:54:46;;;;;;;;;;;;;;;12.53;18.53;101964.03;1693221;84;20123;-74
2022/03/19 12:57:23;;;;;;;;;;;;;;;12.57;18.14;101962.95;1692552;84;20099;-73
2022/03/19 12:59:49;;;;;;;;;;;;;;;12.39;18.53;101966.18;1692738;85;21804;-74
2022/03/19 13:02:25;;;;;;;;;;;;;;;12.61;17.21;101969.58;1692506;84;20517;-75
2022/03/19 13:04:54;;;;;;;;;;;;;;;12.83;17.53;101963.82;1690707;85;20162;-75
2022/03/19 13:07:31;;;;;;;;;;;;;;;12.96;17.88;101966.61;1683690;85;20112;-75
2022/03/19 13:09:59;;;;;;;;;;;;;;;12.97;17.41;101969.09;1683196;85;21334;-74
2022/03/19 13:12:33;;;;;;;;;;;;;;;13.01;17.87;101972.13;1691474;84;21172;-74